createdAt,value
2023-02-15T00:02:51.285Z,6.00
2023-02-15T00:07:55.341Z,6.75
2023-02-15T00:12:59.309Z,5.50
2023-02-15T00:18:03.333Z,4.75
2023-02-15T00:23:07.860Z,4.25
2023-02-15T00:28:12.428Z,5.50
2023-02-15T00:33:17.052Z,4.50
2023-02-15T00:38:21.726Z,3.75
2023-02-15T00:43:27.384Z,4.50
2023-02-15T00:48:32.232Z,5.00
2023-02-15T00:53:36.705Z,4.00
2023-02-15T00:58:41.508Z,4.75
2023-02-15T01:03:48.279Z,5.00
2023-02-15T01:08:53.331Z,5.50
2023-02-15T01:13:59.313Z,5.25
2023-02-15T01:19:04.949Z,5.50
2023-02-15T01:24:14.198Z,7.50
2023-02-15T01:29:18.733Z,5.25
2023-02-15T01:34:23.238Z,4.50
2023-02-15T01:39:27.799Z,6.50
2023-02-15T01:44:52.039Z,6.25
2023-02-15T01:50:14.918Z,6.00
2023-02-15T01:55:19.627Z,7.00
2023-02-15T02:00:24.354Z,9.00
2023-02-15T02:05:29.129Z,10.00
2023-02-15T02:10:33.691Z,8.25
2023-02-15T02:15:38.255Z,6.25
2023-02-15T02:21:10.154Z,6.00
2023-02-15T02:26:32.694Z,8.25
2023-02-15T02:31:40.366Z,8.00
2023-02-15T02:36:52.329Z,8.00
2023-02-15T02:41:56.663Z,9.25
2023-02-15T02:47:19.283Z,9.00
2023-02-15T02:52:41.431Z,9.00
2023-02-15T02:57:57.088Z,8.00
2023-02-15T03:03:14.456Z,9.00
2023-02-15T03:08:24.436Z,11.00
2023-02-15T03:13:31.092Z,8.75
2023-02-15T03:18:40.733Z,10.50
2023-02-15T03:23:45.715Z,10.25
2023-02-15T03:28:53.926Z,9.75
2023-02-15T03:34:02.998Z,10.00
2023-02-15T03:39:27.824Z,9.25
2023-02-15T03:44:33.416Z,12.00
2023-02-15T03:49:44.994Z,9.00
2023-02-15T03:54:50.240Z,10.00
2023-02-15T04:00:12.969Z,9.75
2023-02-15T04:05:17.506Z,8.00
2023-02-15T04:10:40.160Z,10.00
2023-02-15T04:16:02.753Z,14.00
2023-02-15T04:21:25.878Z,15.00
2023-02-15T04:26:30.285Z,12.50
2023-02-15T04:31:34.924Z,14.25
2023-02-15T04:36:40.134Z,15.75
2023-02-15T04:41:44.516Z,15.50
2023-02-15T04:46:48.757Z,16.75
2023-02-15T04:51:53.230Z,16.75
2023-02-15T04:56:57.751Z,16.25
2023-02-15T05:02:02.440Z,16.00
2023-02-15T05:07:07.290Z,16.50
2023-02-15T05:12:11.864Z,16.50
2023-02-15T05:17:15.957Z,17.00
2023-02-15T05:22:19.977Z,15.25
2023-02-15T05:27:41.990Z,15.00
2023-02-15T05:32:46.221Z,15.25
2023-02-15T05:37:50.406Z,15.50
2023-02-15T05:42:54.681Z,16.25
2023-02-15T05:48:00.374Z,17.75
2023-02-15T05:53:04.572Z,17.50
2023-02-15T05:58:09.080Z,15.00
2023-02-15T06:03:13.257Z,15.25
2023-02-15T06:08:17.996Z,15.00
2023-02-15T06:13:22.052Z,16.75
2023-02-15T06:18:26.333Z,15.25
2023-02-15T06:23:30.942Z,17.25
2023-02-15T06:28:35.459Z,16.00
2023-02-15T06:33:40.746Z,17.25
2023-02-15T06:38:44.957Z,16.50
2023-02-15T06:43:49.227Z,17.00
2023-02-15T06:48:53.885Z,16.00
2023-02-15T06:53:58.451Z,16.00
2023-02-15T06:59:03.097Z,15.00
2023-02-15T07:04:07.834Z,15.75
2023-02-15T07:09:12.441Z,14.75
2023-02-15T07:14:16.828Z,15.50
2023-02-15T07:19:21.463Z,15.25
2023-02-15T07:24:26.136Z,14.00
2023-02-15T07:29:30.801Z,11.75
2023-02-15T07:34:35.563Z,9.00
2023-02-15T07:39:40.179Z,10.75
2023-02-15T07:44:44.250Z,12.00
2023-02-15T07:49:48.709Z,10.00
2023-02-15T07:54:53.019Z,16.25
2023-02-15T07:59:57.348Z,13.25
2023-02-15T08:05:01.703Z,11.00
2023-02-15T08:10:06.061Z,10.25
2023-02-15T08:15:10.413Z,11.00
2023-02-15T08:20:15.660Z,10.25
2023-02-15T08:25:19.900Z,8.75
2023-02-15T08:30:24.970Z,8.50
2023-02-15T08:35:29.938Z,7.50
2023-02-15T08:40:34.491Z,8.50
2023-02-15T08:45:39.001Z,8.00
2023-02-15T08:50:43.474Z,10.00
2023-02-15T08:55:48.050Z,6.00
2023-02-15T09:00:53.480Z,8.00
2023-02-15T09:06:04.225Z,10.00
2023-02-15T09:11:10.862Z,9.00
2023-02-15T09:16:15.317Z,9.75
2023-02-15T09:21:21.380Z,6.50
2023-02-15T09:26:26.852Z,11.75
2023-02-15T09:31:33.560Z,10.00
2023-02-15T09:36:38.953Z,18.50
2023-02-15T09:41:58.526Z,11.00
2023-02-15T09:47:20.915Z,11.50
2023-02-15T09:52:31.091Z,16.25
2023-02-15T09:57:53.485Z,12.25
2023-02-15T10:02:57.574Z,9.25
2023-02-15T10:08:16.406Z,11.25
2023-02-15T10:13:27.970Z,13.50
2023-02-15T10:18:41.619Z,12.00
2023-02-15T10:23:57.439Z,17.25
2023-02-15T10:29:11.463Z,14.75
2023-02-15T10:34:19.779Z,12.25
2023-02-15T10:39:27.044Z,13.75
2023-02-15T10:44:49.266Z,10.50
2023-02-15T10:50:05.408Z,11.00
2023-02-15T10:55:09.598Z,11.25
2023-02-15T11:00:14.224Z,11.00
2023-02-15T11:05:29.332Z,10.50
2023-02-15T11:10:48.960Z,8.75
2023-02-15T11:15:59.020Z,9.75
2023-02-15T11:21:06.428Z,8.75
2023-02-15T11:26:19.952Z,11.50
2023-02-15T11:31:26.493Z,9.00
2023-02-15T11:36:36.193Z,13.00
2023-02-15T11:41:43.914Z,9.25
2023-02-15T11:46:48.368Z,9.00
2023-02-15T11:51:53.550Z,11.25
2023-02-15T11:57:02.174Z,11.00
2023-02-15T12:02:18.329Z,11.50
2023-02-15T12:07:27.874Z,9.75
2023-02-15T12:12:37.174Z,12.00
2023-02-15T12:17:43.337Z,11.00
2023-02-15T12:22:53.167Z,11.00
2023-02-15T12:27:58.375Z,13.00
2023-02-15T12:33:26.499Z,13.75
2023-02-15T12:38:32.847Z,12.25
2023-02-15T12:43:38.974Z,17.25
2023-02-15T12:48:43.664Z,15.50
2023-02-15T12:53:48.344Z,14.00
2023-02-15T12:59:06.845Z,14.00
2023-02-15T13:04:24.590Z,13.75
2023-02-15T13:09:40.266Z,15.25
2023-02-15T13:14:49.318Z,14.00
2023-02-15T13:19:56.678Z,15.00
2023-02-15T13:25:04.413Z,13.00
2023-02-15T13:30:21.186Z,14.50
2023-02-15T13:35:27.664Z,14.00
2023-02-15T13:40:51.656Z,13.25
2023-02-15T13:46:02.252Z,13.00
2023-02-15T13:51:20.053Z,14.75
2023-02-15T13:56:24.532Z,13.50
2023-02-15T14:01:45.139Z,12.75
2023-02-15T14:06:52.436Z,13.00
2023-02-15T14:12:02.318Z,11.25
2023-02-15T14:17:16.954Z,13.00
2023-02-15T14:22:26.635Z,12.00
2023-02-15T14:27:31.286Z,12.75
2023-02-15T14:32:54.116Z,12.75
2023-02-15T14:38:01.437Z,11.50
2023-02-15T14:43:05.642Z,12.25
2023-02-15T14:48:23.441Z,13.00
2023-02-15T14:53:33.533Z,12.25
2023-02-15T14:58:41.148Z,12.00
2023-02-15T15:03:50.823Z,12.00
2023-02-15T15:09:01.477Z,14.75
2023-02-15T15:14:06.365Z,14.25
2023-02-15T15:19:14.254Z,10.25
2023-02-15T15:24:37.135Z,13.50
2023-02-15T15:29:42.722Z,13.00
2023-02-15T15:35:06.775Z,13.00
2023-02-15T15:40:20.729Z,12.75
2023-02-15T15:45:30.806Z,11.50
2023-02-15T15:50:35.564Z,13.00
2023-02-15T15:55:40.650Z,12.75
2023-02-15T16:00:59.733Z,14.00
2023-02-15T16:06:04.516Z,15.50
2023-02-15T16:11:29.583Z,13.00
2023-02-15T16:16:34.459Z,13.00
2023-02-15T16:21:39.483Z,15.00
2023-02-15T16:26:44.212Z,14.00
2023-02-15T16:32:05.393Z,14.75
2023-02-15T16:37:24.202Z,14.00
2023-02-15T16:42:28.632Z,15.25
2023-02-15T16:47:34.072Z,17.00
2023-02-15T16:52:38.648Z,15.50
2023-02-15T16:57:45.428Z,14.00
2023-02-15T17:03:15.895Z,12.25
2023-02-15T17:08:20.834Z,14.50
2023-02-15T17:13:24.954Z,15.75
2023-02-15T17:18:31.666Z,16.75
2023-02-15T17:23:38.529Z,13.50
2023-02-15T17:28:48.104Z,14.00
2023-02-15T17:33:53.022Z,14.00
2023-02-15T17:39:00.106Z,13.00
2023-02-15T17:44:05.192Z,15.00
2023-02-15T17:49:09.477Z,13.50
2023-02-15T17:54:31.954Z,15.75
2023-02-15T17:59:35.995Z,14.00
2023-02-15T18:04:58.153Z,13.00
2023-02-15T18:10:20.680Z,13.00
2023-02-15T18:15:25.391Z,16.25
2023-02-15T18:20:38.361Z,14.00
2023-02-15T18:25:44.251Z,14.75
2023-02-15T18:30:48.532Z,13.50
2023-02-15T18:35:52.777Z,15.00
2023-02-15T18:40:56.840Z,13.50
2023-02-15T18:46:01.088Z,13.75
2023-02-15T18:51:05.648Z,16.50
2023-02-15T18:56:14.551Z,16.50
2023-02-15T19:01:23.265Z,15.00
2023-02-15T19:06:27.412Z,16.00
2023-02-15T19:11:31.578Z,16.75
2023-02-15T19:16:37.131Z,16.50
2023-02-15T19:21:41.985Z,17.75
2023-02-15T19:26:46.723Z,19.25
2023-02-15T19:31:50.971Z,19.00
2023-02-15T19:36:55.935Z,16.75
2023-02-15T19:42:00.355Z,19.75
2023-02-15T19:47:04.455Z,21.25
2023-02-15T19:52:15.317Z,20.00
2023-02-15T19:57:19.441Z,22.00
2023-02-15T20:02:23.496Z,21.00
2023-02-15T20:07:29.009Z,22.00
2023-02-15T20:12:33.145Z,19.25
2023-02-15T20:17:37.240Z,20.00
2023-02-15T20:22:42.455Z,22.00
2023-02-15T20:27:46.504Z,20.75
2023-02-15T20:32:50.855Z,18.75
2023-02-15T20:37:56.307Z,20.00
2023-02-15T20:43:00.406Z,21.00
2023-02-15T20:48:05.117Z,22.00
2023-02-15T20:53:11.053Z,17.00
2023-02-15T20:58:22.838Z,15.50
2023-02-15T21:03:31.907Z,13.00
2023-02-15T21:08:37.085Z,13.25
2023-02-15T21:13:47.683Z,15.00
2023-02-15T21:18:51.806Z,15.75
2023-02-15T21:23:56.140Z,17.50
2023-02-15T21:29:00.287Z,13.00
2023-02-15T21:34:04.455Z,13.50
2023-02-15T21:39:08.765Z,13.75
2023-02-15T21:44:37.158Z,14.50
2023-02-15T21:49:41.292Z,16.00
2023-02-15T21:54:45.475Z,14.25
2023-02-15T21:59:49.610Z,15.50
2023-02-15T22:04:54.008Z,14.75
2023-02-15T22:09:58.037Z,14.50
2023-02-15T22:15:03.018Z,15.50
2023-02-15T22:20:13.778Z,12.75
2023-02-15T22:25:19.498Z,13.50
2023-02-15T22:30:29.241Z,13.75
2023-02-15T22:35:35.644Z,14.75
2023-02-15T22:40:39.751Z,14.00
2023-02-15T22:45:43.979Z,15.00
2023-02-15T22:50:48.118Z,13.75
2023-02-15T22:55:52.616Z,11.75
2023-02-15T23:00:56.724Z,12.00
2023-02-15T23:06:00.870Z,12.00
2023-02-15T23:11:05.232Z,12.25
2023-02-15T23:16:14.560Z,12.75
2023-02-15T23:21:26.478Z,16.50
2023-02-15T23:26:33.255Z,13.00
2023-02-15T23:31:38.171Z,16.50
2023-02-15T23:36:42.770Z,15.75
2023-02-15T23:41:47.437Z,19.25
2023-02-15T23:46:52.525Z,21.00
2023-02-15T23:51:57.740Z,21.25
2023-02-15T23:57:03.256Z,20.50
